createdAt,value
2022-10-11T00:00:44.118Z,12.80
2022-10-11T00:03:16.350Z,12.60
2022-10-11T00:05:54.971Z,12.10
2022-10-11T00:08:22.745Z,12.40
2022-10-11T00:11:06.565Z,12.30
2022-10-11T00:13:34.181Z,12.40
2022-10-11T00:16:07.058Z,12.00
2022-10-11T00:18:38.230Z,12.10
2022-10-11T00:21:38.279Z,12.00
2022-10-11T00:24:48.867Z,11.70
2022-10-11T00:27:49.050Z,11.90
2022-10-11T00:30:47.460Z,11.90
2022-10-11T00:33:34.423Z,11.80
2022-10-11T00:36:26.975Z,11.80
2022-10-11T00:38:53.783Z,11.80
2022-10-11T00:41:20.724Z,12.20
2022-10-11T00:43:47.603Z,12.40
2022-10-11T00:46:30.444Z,12.00
2022-10-11T00:49:06.980Z,11.70
2022-10-11T00:51:43.300Z,11.70
2022-10-11T00:54:17.478Z,11.70
2022-10-11T00:56:58.745Z,11.60
2022-10-11T00:59:34.743Z,11.60
2022-10-11T01:02:05.678Z,11.50
2022-10-11T01:04:34.059Z,11.50
2022-10-11T01:07:02.427Z,12.10
2022-10-11T01:09:30.395Z,11.10
2022-10-11T01:12:02.543Z,12.00
2022-10-11T01:14:59.297Z,11.80
2022-10-11T01:17:54.676Z,11.50
2022-10-11T01:20:46.063Z,11.40
2022-10-11T01:23:49.609Z,11.30
2022-10-11T01:26:55.561Z,11.40
2022-10-11T01:29:53.697Z,11.40
2022-10-11T01:32:36.632Z,11.30
2022-10-11T01:35:28.329Z,11.30
2022-10-11T01:38:26.786Z,11.30
2022-10-11T01:41:21.503Z,11.30
2022-10-11T01:43:55.387Z,11.20
2022-10-11T01:46:23.897Z,11.20
2022-10-11T01:48:56.339Z,11.10
2022-10-11T01:51:29.661Z,11.10
2022-10-11T01:55:03.923Z,11.10
2022-10-11T01:58:22.233Z,10.80
2022-10-11T02:01:08.679Z,11.00
2022-10-11T02:03:52.534Z,10.90
2022-10-11T02:06:59.365Z,10.90
2022-10-11T02:09:48.065Z,10.90
2022-10-11T02:12:30.435Z,10.80
2022-10-11T02:15:01.604Z,10.80
2022-10-11T02:17:36.611Z,11.40
2022-10-11T02:20:12.586Z,10.70
2022-10-11T02:22:45.908Z,10.70
2022-10-11T02:25:21.259Z,11.10
2022-10-11T02:27:51.718Z,10.70
2022-10-11T02:30:18.837Z,11.00
2022-10-11T02:32:48.087Z,10.60
2022-10-11T02:35:15.272Z,10.60
2022-10-11T02:38:09.915Z,10.60
2022-10-11T02:40:42.628Z,10.60
2022-10-11T02:43:24.082Z,10.60
2022-10-11T02:45:57.704Z,10.50
2022-10-11T02:48:28.462Z,10.50
2022-10-11T02:50:59.466Z,10.50
2022-10-11T02:53:27.187Z,10.50
2022-10-11T02:55:55.924Z,11.00
2022-10-11T02:58:24.771Z,10.30
2022-10-11T03:00:51.931Z,10.40
2022-10-11T03:03:18.814Z,11.10
2022-10-11T03:05:47.682Z,10.40
2022-10-11T03:08:16.397Z,10.40
2022-10-11T03:10:43.506Z,10.60
2022-10-11T03:13:11.454Z,10.40
2022-10-11T03:15:40.774Z,10.40
2022-10-11T03:18:07.569Z,10.40
2022-10-11T03:20:34.780Z,10.40
2022-10-11T03:23:01.496Z,10.40
2022-10-11T03:25:28.726Z,10.40
2022-10-11T03:27:55.505Z,10.40
2022-10-11T03:30:22.302Z,10.40
2022-10-11T03:32:49.115Z,10.30
2022-10-11T03:35:16.118Z,10.40
2022-10-11T03:37:42.911Z,10.30
2022-10-11T03:40:11.425Z,10.30
2022-10-11T03:42:38.774Z,10.30
2022-10-11T03:45:08.875Z,10.30
2022-10-11T03:47:38.659Z,10.30
2022-10-11T03:50:08.857Z,10.30
2022-10-11T03:52:36.692Z,10.30
2022-10-11T03:55:04.347Z,10.30
2022-10-11T03:57:31.083Z,10.30
2022-10-11T03:59:57.814Z,10.30
2022-10-11T04:02:24.713Z,10.30
2022-10-11T04:04:51.439Z,10.20
2022-10-11T04:07:18.627Z,10.20
2022-10-11T04:09:45.415Z,10.20
2022-10-11T04:12:12.741Z,10.10
2022-10-11T04:14:39.524Z,10.60
2022-10-11T04:17:06.515Z,10.10
2022-10-11T04:19:33.269Z,10.10
2022-10-11T04:22:00.028Z,10.10
2022-10-11T04:24:28.141Z,10.10
2022-10-11T04:26:55.107Z,10.10
2022-10-11T04:29:21.992Z,10.00
2022-10-11T04:31:49.004Z,10.00
2022-10-11T04:34:16.377Z,10.00
2022-10-11T04:36:48.987Z,9.90
2022-10-11T04:39:16.876Z,9.90
2022-10-11T04:41:43.771Z,9.90
2022-10-11T04:44:10.493Z,9.90
2022-10-11T04:46:37.263Z,9.80
2022-10-11T04:49:04.061Z,9.80
2022-10-11T04:51:30.981Z,9.80
2022-10-11T04:53:57.760Z,9.70
2022-10-11T04:56:24.607Z,9.70
2022-10-11T04:58:54.115Z,9.60
2022-10-11T05:01:21.602Z,9.60
2022-10-11T05:03:48.866Z,9.60
2022-10-11T05:06:15.673Z,9.60
2022-10-11T05:08:42.519Z,9.90
2022-10-11T05:11:15.686Z,9.50
2022-10-11T05:13:44.137Z,9.50
2022-10-11T05:16:12.390Z,9.50
2022-10-11T05:18:40.110Z,9.50
2022-10-11T05:21:16.009Z,9.40
2022-10-11T05:23:42.959Z,9.40
2022-10-11T05:26:10.655Z,9.80
2022-10-11T05:28:37.607Z,9.40
2022-10-11T05:31:06.439Z,9.40
2022-10-11T05:33:51.322Z,9.40
2022-10-11T05:36:18.424Z,9.40
2022-10-11T05:38:45.272Z,9.40
2022-10-11T05:41:14.997Z,9.40
2022-10-11T05:43:42.515Z,9.30
2022-10-11T05:46:09.654Z,9.40
2022-10-11T05:48:36.923Z,9.40
2022-10-11T05:51:10.713Z,9.40
2022-10-11T05:53:49.597Z,9.40
2022-10-11T05:56:26.175Z,9.30
2022-10-11T05:59:02.702Z,9.30
2022-10-11T06:01:35.011Z,9.30
2022-10-11T06:04:01.851Z,9.90
2022-10-11T06:06:28.682Z,9.40
2022-10-11T06:08:55.666Z,9.30
2022-10-11T06:11:26.745Z,9.50
2022-10-11T06:13:58.204Z,9.40
2022-10-11T06:16:25.889Z,9.40
2022-10-11T06:18:54.774Z,9.50
2022-10-11T06:21:22.442Z,9.60
2022-10-11T06:23:58.360Z,9.80
2022-10-11T06:26:28.853Z,9.90
2022-10-11T06:28:55.736Z,10.20
2022-10-11T06:31:23.165Z,10.40
2022-10-11T06:33:50.037Z,10.70
2022-10-11T06:36:17.753Z,11.00
2022-10-11T06:38:45.474Z,11.40
2022-10-11T06:41:32.686Z,11.70
2022-10-11T06:43:59.542Z,12.20
2022-10-11T06:46:28.080Z,12.60
2022-10-11T06:48:56.327Z,13.00
2022-10-11T06:51:24.489Z,13.40
2022-10-11T06:53:55.411Z,13.90
2022-10-11T06:56:22.882Z,14.30
2022-10-11T06:58:51.059Z,14.70
2022-10-11T07:01:21.378Z,15.10
2022-10-11T07:03:49.386Z,15.60
2022-10-11T07:06:22.664Z,15.90
2022-10-11T07:08:49.729Z,16.30
2022-10-11T07:11:23.034Z,16.70
2022-10-11T07:13:52.821Z,17.10
2022-10-11T07:16:20.808Z,17.50
2022-10-11T07:18:53.832Z,18.30
2022-10-11T07:21:24.323Z,18.20
2022-10-11T07:23:51.130Z,18.50
2022-10-11T07:26:18.526Z,18.90
2022-10-11T07:28:45.469Z,19.20
2022-10-11T07:31:19.736Z,19.60
2022-10-11T07:33:46.957Z,19.90
2022-10-11T07:36:14.534Z,20.20
2022-10-11T07:38:44.165Z,20.70
2022-10-11T07:41:11.531Z,20.90
2022-10-11T07:43:39.864Z,21.20
2022-10-11T07:46:07.517Z,21.70
2022-10-11T07:48:36.454Z,21.90
2022-10-11T07:51:16.512Z,22.20
2022-10-11T07:53:48.100Z,22.60
2022-10-11T07:56:22.245Z,23.10
2022-10-11T07:58:56.157Z,23.20
2022-10-11T08:01:24.238Z,23.50
2022-10-11T08:03:52.306Z,23.80
2022-10-11T08:06:23.074Z,24.00
2022-10-11T08:08:50.086Z,24.30
2022-10-11T08:11:27.387Z,24.50
2022-10-11T08:14:13.107Z,24.80
2022-10-11T08:16:43.229Z,25.00
2022-10-11T08:19:18.475Z,25.30
2022-10-11T08:21:45.672Z,25.30
2022-10-11T08:24:15.607Z,25.90
2022-10-11T08:26:42.497Z,26.10
2022-10-11T08:29:10.698Z,26.40
2022-10-11T08:31:37.520Z,26.60
2022-10-11T08:34:04.665Z,26.70
2022-10-11T08:36:31.518Z,27.00
2022-10-11T08:39:00.543Z,27.10
2022-10-11T08:41:40.850Z,27.30
2022-10-11T08:45:09.669Z,27.40
2022-10-11T08:47:44.103Z,27.60
2022-10-11T08:50:23.158Z,27.80
2022-10-11T08:53:05.791Z,28.00
2022-10-11T08:55:44.889Z,28.10
2022-10-11T08:58:22.084Z,28.20
2022-10-11T09:00:55.566Z,28.30
2022-10-11T09:03:45.957Z,28.40
2022-10-11T09:06:47.618Z,28.60
2022-10-11T09:09:23.682Z,28.70
2022-10-11T09:12:03.237Z,28.80
2022-10-11T09:14:44.593Z,28.90
2022-10-11T09:17:32.291Z,29.00
2022-10-11T09:20:33.722Z,29.00
2022-10-11T09:23:31.297Z,29.10
2022-10-11T09:26:28.815Z,29.20
2022-10-11T09:29:40.568Z,29.40
2022-10-11T09:32:16.977Z,29.60
2022-10-11T09:34:44.220Z,29.80
2022-10-11T09:37:25.348Z,29.90
2022-10-11T09:40:19.951Z,30.10
2022-10-11T09:42:46.716Z,30.30
2022-10-11T09:45:21.818Z,30.40
2022-10-11T09:47:52.307Z,30.40
2022-10-11T09:50:25.743Z,30.50
2022-10-11T09:52:56.621Z,30.40
2022-10-11T09:55:40.564Z,30.40
2022-10-11T09:58:34.547Z,30.40
2022-10-11T10:01:22.300Z,30.20
2022-10-11T10:04:16.818Z,30.10
2022-10-11T10:06:43.754Z,30.00
2022-10-11T10:09:30.965Z,29.90
2022-10-11T10:11:58.156Z,29.80
2022-10-11T10:14:30.509Z,29.70
2022-10-11T10:17:03.692Z,29.70
2022-10-11T10:19:44.759Z,29.80
2022-10-11T10:22:27.319Z,29.70
2022-10-11T10:24:56.148Z,29.50
2022-10-11T10:27:29.593Z,29.40
2022-10-11T10:30:09.906Z,29.20
2022-10-11T10:32:58.353Z,29.10
2022-10-11T10:35:43.211Z,29.00
2022-10-11T10:38:26.200Z,28.90
2022-10-11T10:41:02.811Z,28.80
2022-10-11T10:43:35.595Z,28.70
2022-10-11T10:46:38.819Z,28.50
2022-10-11T10:53:23.926Z,28.20
2022-10-11T10:56:27.383Z,27.90
2022-10-11T10:59:03.029Z,27.50
2022-10-11T11:01:38.636Z,27.10
2022-10-11T11:04:35.166Z,26.80
2022-10-11T11:07:33.791Z,26.60
2022-10-11T11:10:24.696Z,26.40
2022-10-11T11:13:37.574Z,26.30
2022-10-11T11:16:18.733Z,26.10
2022-10-11T11:19:39.945Z,26.10
2022-10-11T11:22:32.743Z,25.60
2022-10-11T11:25:48.559Z,25.30
2022-10-11T11:29:11.303Z,25.00
2022-10-11T11:31:59.689Z,24.80
2022-10-11T11:34:34.044Z,24.50
2022-10-11T11:37:10.526Z,24.30
2022-10-11T11:39:48.963Z,24.00
2022-10-11T11:42:34.057Z,23.70
2022-10-11T11:45:18.783Z,23.50
2022-10-11T11:47:57.130Z,23.30
2022-10-11T11:50:27.933Z,23.10
2022-10-11T11:53:05.346Z,22.90
2022-10-11T11:55:52.678Z,22.70
2022-10-11T11:58:45.607Z,22.50
2022-10-11T12:01:26.506Z,22.20
2022-10-11T12:04:03.330Z,22.00
2022-10-11T12:06:37.942Z,21.70
2022-10-11T12:09:22.741Z,21.50
2022-10-11T12:11:59.900Z,21.30
2022-10-11T12:14:47.044Z,21.10
2022-10-11T12:17:23.691Z,21.10
2022-10-11T12:20:28.631Z,20.70
2022-10-11T12:23:30.476Z,20.40
2022-10-11T12:26:27.820Z,20.20
2022-10-11T12:29:24.548Z,20.00
2022-10-11T12:32:00.797Z,19.90
2022-10-11T12:34:43.804Z,19.70
2022-10-11T12:37:19.688Z,19.70
2022-10-11T12:39:54.522Z,19.60
2022-10-11T12:42:26.944Z,19.50
2022-10-11T12:45:12.236Z,19.40
2022-10-11T12:48:05.071Z,19.30
2022-10-11T12:51:22.844Z,19.20
2022-10-11T12:54:37.404Z,19.20
2022-10-11T12:57:27.115Z,19.10
2022-10-11T12:59:54.029Z,19.00
2022-10-11T13:02:39.766Z,19.00
2022-10-11T13:05:22.223Z,19.00
2022-10-11T13:07:50.747Z,18.90
2022-10-11T13:10:28.975Z,18.90
2022-10-11T13:12:59.673Z,18.80
2022-10-11T13:15:28.215Z,18.70
2022-10-11T13:18:00.505Z,18.60
2022-10-11T13:20:36.141Z,18.60
2022-10-11T13:23:35.816Z,18.50
2022-10-11T13:26:03.349Z,18.50
2022-10-11T13:28:36.170Z,18.70
2022-10-11T13:31:05.426Z,18.40
2022-10-11T13:33:38.095Z,18.40
2022-10-11T13:36:14.661Z,18.30
2022-10-11T13:38:41.408Z,18.40
2022-10-11T13:41:10.454Z,18.20
2022-10-11T13:43:38.653Z,18.10
2022-10-11T13:46:05.958Z,18.10
2022-10-11T13:48:40.926Z,18.00
2022-10-11T13:51:33.460Z,18.00
2022-10-11T13:54:11.610Z,17.90
2022-10-11T13:56:50.968Z,17.90
2022-10-11T13:59:32.737Z,17.80
2022-10-11T14:02:04.222Z,17.80
2022-10-11T14:04:41.063Z,17.80
2022-10-11T14:07:31.572Z,17.70
2022-10-11T14:09:58.513Z,17.70
2022-10-11T14:12:33.071Z,17.70
2022-10-11T14:15:02.486Z,17.70
2022-10-11T14:17:43.263Z,17.70
2022-10-11T14:20:28.296Z,17.60
2022-10-11T14:22:57.936Z,17.60
2022-10-11T14:25:24.763Z,17.50
2022-10-11T14:27:51.933Z,17.50
2022-10-11T14:30:26.033Z,17.50
2022-10-11T14:32:57.578Z,17.40
2022-10-11T14:35:28.964Z,17.40
2022-10-11T14:37:56.175Z,17.40
2022-10-11T14:40:27.948Z,17.40
2022-10-11T14:42:55.108Z,17.30
2022-10-11T14:45:21.913Z,17.30
2022-10-11T14:47:49.880Z,17.20
2022-10-11T14:50:44.435Z,17.20
2022-10-11T14:53:12.183Z,17.10
2022-10-11T14:55:40.910Z,17.00
2022-10-11T14:58:10.111Z,17.00
2022-10-11T15:00:37.756Z,17.00
2022-10-11T15:03:07.082Z,17.00
2022-10-11T15:05:35.525Z,17.00
2022-10-11T15:08:04.898Z,16.90
2022-10-11T15:10:40.383Z,16.90
2022-10-11T15:13:08.247Z,16.80
2022-10-11T15:15:37.939Z,16.80
2022-10-11T15:18:08.797Z,16.80
2022-10-11T15:20:40.047Z,16.80
2022-10-11T15:23:09.782Z,16.80
2022-10-11T15:25:39.529Z,16.70
2022-10-11T15:28:08.277Z,16.70
2022-10-11T15:30:41.269Z,16.70
2022-10-11T15:33:08.319Z,16.60
2022-10-11T15:35:35.106Z,16.60
2022-10-11T15:38:01.813Z,16.70
2022-10-11T15:40:34.733Z,16.50
2022-10-11T15:43:02.155Z,16.50
2022-10-11T15:45:29.980Z,16.50
2022-10-11T15:47:56.851Z,16.50
2022-10-11T15:50:34.396Z,16.40
2022-10-11T15:53:13.702Z,16.40
2022-10-11T15:55:44.302Z,16.40
2022-10-11T15:58:24.366Z,16.30
2022-10-11T16:00:55.373Z,16.30
2022-10-11T16:03:26.455Z,16.30
2022-10-11T16:05:54.979Z,16.30
2022-10-11T16:08:22.218Z,16.20
2022-10-11T16:10:50.057Z,16.20
2022-10-11T16:13:17.815Z,16.20
2022-10-11T16:15:46.343Z,16.10
2022-10-11T16:18:16.697Z,16.10
2022-10-11T16:20:49.360Z,16.00
2022-10-11T16:23:16.230Z,16.00
2022-10-11T16:25:43.455Z,16.00
2022-10-11T16:28:11.052Z,16.00
2022-10-11T16:30:45.187Z,15.90
2022-10-11T16:33:12.235Z,15.90
2022-10-11T16:35:42.842Z,15.80
2022-10-11T16:38:10.590Z,15.70
2022-10-11T16:40:39.249Z,16.00
2022-10-11T16:43:07.954Z,15.70
2022-10-11T16:45:35.866Z,15.70
2022-10-11T16:48:04.233Z,15.60
2022-10-11T16:50:39.100Z,15.50
2022-10-11T16:53:06.533Z,15.50
2022-10-11T16:55:33.285Z,15.40
2022-10-11T16:58:00.015Z,15.40
2022-10-11T17:00:26.759Z,15.30
2022-10-11T17:02:53.553Z,15.30
2022-10-11T17:05:20.359Z,15.70
2022-10-11T17:07:47.152Z,15.00
2022-10-11T17:10:13.898Z,15.00
2022-10-11T17:12:40.685Z,14.90
2022-10-11T17:15:11.826Z,14.90
2022-10-11T17:17:38.534Z,14.80
2022-10-11T17:20:05.762Z,14.70
2022-10-11T17:22:32.483Z,14.60
2022-10-11T17:25:01.365Z,14.50
2022-10-11T17:27:28.518Z,14.50
2022-10-11T17:29:55.362Z,14.40
2022-10-11T17:32:22.077Z,14.40
2022-10-11T17:34:48.817Z,14.30
2022-10-11T17:37:15.505Z,14.20
2022-10-11T17:39:42.346Z,14.20
2022-10-11T17:42:09.188Z,14.20
2022-10-11T17:44:36.229Z,14.10
2022-10-11T17:47:03.173Z,14.10
2022-10-11T17:49:30.433Z,14.00
2022-10-11T17:51:57.285Z,13.90
2022-10-11T17:54:25.810Z,14.00
2022-10-11T17:56:52.814Z,13.90
2022-10-11T17:59:21.443Z,14.00
2022-10-11T18:01:50.112Z,13.80
2022-10-11T18:04:19.125Z,13.80
2022-10-11T18:06:47.607Z,13.70
2022-10-11T18:09:17.329Z,13.70
2022-10-11T18:11:44.974Z,13.60
2022-10-11T18:14:12.049Z,13.60
2022-10-11T18:16:40.164Z,13.70
2022-10-11T18:19:11.438Z,13.50
2022-10-11T18:21:39.394Z,13.50
2022-10-11T18:24:13.385Z,13.90
2022-10-11T18:26:41.060Z,13.40
2022-10-11T18:29:07.929Z,13.40
2022-10-11T18:31:35.458Z,13.30
2022-10-11T18:34:05.191Z,13.30
2022-10-11T18:36:33.012Z,13.30
2022-10-11T18:39:03.618Z,13.20
2022-10-11T18:41:33.141Z,13.20
2022-10-11T18:44:04.294Z,13.50
2022-10-11T18:46:32.545Z,13.10
2022-10-11T18:49:01.836Z,13.50
2022-10-11T18:51:38.005Z,13.00
2022-10-11T18:54:07.242Z,13.00
2022-10-11T18:56:36.987Z,12.90
2022-10-11T18:59:05.694Z,12.90
2022-10-11T19:01:43.112Z,12.90
2022-10-11T19:04:12.913Z,12.90
2022-10-11T19:06:43.957Z,12.90
2022-10-11T19:09:21.278Z,12.80
2022-10-11T19:11:54.358Z,12.90
2022-10-11T19:14:26.580Z,12.70
2022-10-11T19:16:55.712Z,12.70
2022-10-11T19:19:29.089Z,12.60
2022-10-11T19:21:57.431Z,12.60
2022-10-11T19:24:27.833Z,12.60
2022-10-11T19:27:01.199Z,12.60
2022-10-11T19:29:29.290Z,12.50
2022-10-11T19:31:59.453Z,12.50
2022-10-11T19:34:28.772Z,12.50
2022-10-11T19:36:56.755Z,12.40
2022-10-11T19:39:24.924Z,12.40
2022-10-11T19:41:52.292Z,12.30
2022-10-11T19:44:19.957Z,12.30
2022-10-11T19:46:54.131Z,12.30
2022-10-11T19:49:24.918Z,12.20
2022-10-11T19:51:53.404Z,12.20
2022-10-11T19:54:20.221Z,12.30
2022-10-11T19:56:47.390Z,12.10
2022-10-11T19:59:14.538Z,12.10
2022-10-11T20:01:42.548Z,12.00
2022-10-11T20:04:33.082Z,12.00
2022-10-11T20:06:59.461Z,12.00
2022-10-11T20:09:30.579Z,11.90
2022-10-11T20:11:58.200Z,11.90
2022-10-11T20:14:25.010Z,11.90
2022-10-11T20:16:52.499Z,11.90
2022-10-11T20:19:19.388Z,11.80
2022-10-11T20:21:47.269Z,11.80
2022-10-11T20:24:14.013Z,12.20
2022-10-11T20:26:40.739Z,11.90
2022-10-11T20:29:07.765Z,11.70
2022-10-11T20:31:40.744Z,11.70
2022-10-11T20:34:08.644Z,11.60
2022-10-11T20:36:36.563Z,11.70
2022-10-11T20:39:05.168Z,11.60
2022-10-11T20:41:37.144Z,11.60
2022-10-11T20:44:04.730Z,11.60
2022-10-11T20:46:36.572Z,11.60
2022-10-11T20:49:11.172Z,11.60
2022-10-11T20:51:41.786Z,11.60
2022-10-11T20:54:09.334Z,11.60
2022-10-11T20:56:36.316Z,11.60
2022-10-11T20:59:04.174Z,11.60
2022-10-11T21:01:40.619Z,11.50
2022-10-11T21:04:19.524Z,11.60
2022-10-11T21:06:48.241Z,11.50
2022-10-11T21:09:16.985Z,11.60
2022-10-11T21:11:44.298Z,11.50
2022-10-11T21:14:11.406Z,11.50
2022-10-11T21:16:38.187Z,11.50
2022-10-11T21:19:06.085Z,11.50
2022-10-11T21:21:32.811Z,11.50
2022-10-11T21:24:02.109Z,11.50
2022-10-11T21:26:30.446Z,11.40
2022-10-11T21:28:59.346Z,11.40
2022-10-11T21:31:31.084Z,11.40
2022-10-11T21:34:00.714Z,11.30
2022-10-11T21:36:27.659Z,11.30
2022-10-11T21:38:54.741Z,11.20
2022-10-11T21:41:28.909Z,11.20
2022-10-11T21:43:56.219Z,11.20
2022-10-11T21:46:41.620Z,11.10
2022-10-11T21:49:13.278Z,11.10
2022-10-11T21:51:40.069Z,11.00
2022-10-11T21:54:06.981Z,11.00
2022-10-11T21:56:33.846Z,11.00
2022-10-11T21:59:00.682Z,10.90
2022-10-11T22:01:27.799Z,11.50
2022-10-11T22:03:54.819Z,10.80
2022-10-11T22:06:22.080Z,10.80
2022-10-11T22:08:49.994Z,10.80
2022-10-11T22:11:17.474Z,10.80
2022-10-11T22:13:44.790Z,10.80
2022-10-11T22:16:13.752Z,10.80
2022-10-11T22:18:41.375Z,10.70
2022-10-11T22:21:23.659Z,10.70
2022-10-11T22:23:53.639Z,10.70
2022-10-11T22:26:27.312Z,11.30
2022-10-11T22:28:54.223Z,10.70
2022-10-11T22:31:22.107Z,11.00
2022-10-11T22:33:53.212Z,10.60
2022-10-11T22:36:20.010Z,10.60
2022-10-11T22:38:47.203Z,10.60
2022-10-11T22:41:14.007Z,10.60
2022-10-11T22:43:40.758Z,10.60
2022-10-11T22:46:07.857Z,10.50
2022-10-11T22:48:34.979Z,10.50
2022-10-11T22:51:02.170Z,10.50
2022-10-11T22:53:29.259Z,10.50
2022-10-11T22:55:56.002Z,10.40
2022-10-11T22:58:22.808Z,10.50
2022-10-11T23:00:49.573Z,10.40
2022-10-11T23:03:18.430Z,10.40
2022-10-11T23:05:56.473Z,10.40
2022-10-11T23:08:23.739Z,10.40
2022-10-11T23:10:50.585Z,10.40
2022-10-11T23:13:17.847Z,10.40
2022-10-11T23:15:44.594Z,10.40
2022-10-11T23:18:11.756Z,10.30
2022-10-11T23:20:39.712Z,10.30
2022-10-11T23:23:07.251Z,10.30
2022-10-11T23:25:36.813Z,10.20
2022-10-11T23:28:03.674Z,10.30
2022-10-11T23:30:30.899Z,10.20
2022-10-11T23:32:57.900Z,10.20
2022-10-11T23:35:25.018Z,10.20
2022-10-11T23:37:54.747Z,10.20
2022-10-11T23:40:21.517Z,10.10
2022-10-11T23:42:48.363Z,10.10
2022-10-11T23:45:15.397Z,10.10
2022-10-11T23:47:42.138Z,10.10
2022-10-11T23:50:09.307Z,10.10
2022-10-11T23:52:36.265Z,10.10
2022-10-11T23:55:03.681Z,10.10
2022-10-11T23:57:30.482Z,10.10
2022-10-11T23:59:57.175Z,10.00
